Time;durP1;ratioP1;P1;durP2;ratioP2;P2;SDS_P1;SDS_P2;PMS_P1;PMS_P2;Temp;Humidity;BMP_temperature;BMP_pressure;BME280_temperature;BME280_humidity;BME280_pressure;Samples;Min_cycle;Max_cycle;Signal;HPM_P1;HPM_P2
2023/03/26 00:01:45;;;;;;;5.20;3.13;;;18.50;53.90;;;;;;5071958;28;20460;-82
2023/03/26 00:04:13;;;;;;;6.90;3.53;;;18.60;54.10;;;;;;5070623;28;20528;-81
2023/03/26 00:06:41;;;;;;;4.03;2.80;;;18.50;54.00;;;;;;5071394;28;20484;-82
2023/03/26 00:09:11;;;;;;;6.57;4.63;;;18.50;53.90;;;;;;5067813;28;20453;-82
2023/03/26 00:11:41;;;;;;;8.17;4.13;;;18.50;54.10;;;;;;5074021;28;20445;-82
2023/03/26 00:14:12;;;;;;;8.77;4.87;;;18.50;54.20;;;;;;5074563;28;20474;-82
2023/03/26 00:16:41;;;;;;;8.13;5.60;;;18.50;54.20;;;;;;5073201;28;21005;-82
2023/03/26 00:19:09;;;;;;;8.37;5.27;;;18.50;54.20;;;;;;5065893;28;20458;-81
2023/03/26 00:21:38;;;;;;;8.93;5.20;;;18.50;54.40;;;;;;5075680;28;20493;-82
2023/03/26 00:24:08;;;;;;;9.77;5.67;;;18.50;54.40;;;;;;5074874;28;20452;-81
2023/03/26 00:26:37;;;;;;;8.90;5.50;;;18.50;54.40;;;;;;5075060;28;20454;-82
2023/03/26 00:29:08;;;;;;;9.57;6.07;;;18.50;54.40;;;;;;5075921;28;20507;-82
2023/03/26 00:31:38;;;;;;;10.00;6.30;;;18.40;54.40;;;;;;5071904;28;20473;-82
2023/03/26 00:34:07;;;;;;;8.77;5.87;;;18.40;54.50;;;;;;5074644;28;20477;-82
2023/03/26 00:36:36;;;;;;;10.53;5.80;;;18.40;54.50;;;;;;5072828;28;20454;-82
2023/03/26 00:39:04;;;;;;;9.27;7.10;;;18.40;54.50;;;;;;5077441;28;20445;-81
2023/03/26 00:41:35;;;;;;;10.60;5.80;;;18.40;54.60;;;;;;5065710;28;20452;-83
2023/03/26 00:44:04;;;;;;;11.40;6.57;;;18.40;54.60;;;;;;5072881;28;20516;-82
2023/03/26 00:46:33;;;;;;;11.37;6.77;;;18.40;54.80;;;;;;5073452;28;20452;-81
2023/03/26 00:49:02;;;;;;;10.90;7.00;;;18.40;54.80;;;;;;5075238;28;20468;-81
2023/03/26 00:51:32;;;;;;;9.77;6.70;;;18.40;54.90;;;;;;5071522;28;20453;-81
2023/03/26 00:54:00;;;;;;;11.03;6.63;;;18.40;54.90;;;;;;5073567;28;20471;-82
2023/03/26 00:56:28;;;;;;;9.80;6.30;;;18.40;54.90;;;;;;5074541;28;20457;-81
2023/03/26 00:58:59;;;;;;;11.10;6.87;;;18.40;54.90;;;;;;5073927;28;20457;-81
2023/03/26 01:01:27;;;;;;;9.80;6.50;;;18.40;54.90;;;;;;5075174;28;20454;-82
2023/03/26 01:03:58;;;;;;;11.30;6.70;;;18.40;55.00;;;;;;5072459;28;20453;-82
2023/03/26 01:06:35;;;;;;;9.00;6.53;;;18.40;55.10;;;;;;5072537;28;20452;-82
2023/03/26 01:09:05;;;;;;;8.73;6.17;;;18.40;55.10;;;;;;5076498;28;20917;-81
2023/03/26 01:11:34;;;;;;;9.87;6.30;;;18.40;55.10;;;;;;5073058;28;20450;-82
2023/03/26 01:14:06;;;;;;;10.37;6.03;;;18.40;55.10;;;;;;5076401;28;20469;-81
2023/03/26 01:16:36;;;;;;;8.60;6.50;;;18.40;55.00;;;;;;5071798;28;20453;-82
2023/03/26 01:19:09;;;;;;;9.77;6.80;;;18.40;55.20;;;;;;5076204;28;20513;-82
2023/03/26 01:21:37;;;;;;;12.63;6.80;;;18.40;55.10;;;;;;5080514;28;20499;-81
2023/03/26 01:24:07;;;;;;;10.40;7.00;;;18.40;55.20;;;;;;5079635;28;20445;-82
2023/03/26 01:26:47;;;;;;;9.50;6.70;;;18.40;55.20;;;;;;5076530;28;20449;-82
2023/03/26 01:29:20;;;;;;;11.10;6.07;;;18.40;55.20;;;;;;5076813;28;20449;-82
2023/03/26 01:31:54;;;;;;;12.20;6.80;;;18.40;55.20;;;;;;5078521;28;20450;-81
2023/03/26 01:34:29;;;;;;;11.43;6.47;;;18.40;55.40;;;;;;5079770;28;20476;-82
2023/03/26 01:37:00;;;;;;;9.53;5.60;;;18.40;55.30;;;;;;5079123;28;20469;-79
2023/03/26 01:39:31;;;;;;;8.87;5.47;;;18.30;55.30;;;;;;5074145;28;20449;-83
2023/03/26 01:42:01;;;;;;;6.50;5.30;;;18.30;55.30;;;;;;5079703;28;20453;-81
2023/03/26 01:44:31;;;;;;;7.90;5.70;;;18.30;55.40;;;;;;5078087;28;20453;-80
2023/03/26 01:46:59;;;;;;;8.80;5.53;;;18.30;55.40;;;;;;5078811;28;20485;-82
2023/03/26 01:49:27;;;;;;;10.30;5.00;;;18.30;55.40;;;;;;5079106;28;20454;-82
2023/03/26 01:51:56;;;;;;;10.50;5.73;;;18.30;55.40;;;;;;5080688;28;20460;-80
2023/03/26 01:54:25;;;;;;;7.03;5.60;;;18.30;55.50;;;;;;5079606;28;20557;-82
2023/03/26 01:57:00;;;;;;;6.77;5.17;;;18.30;55.60;;;;;;5081077;28;20501;-82
2023/03/26 01:59:43;;;;;;;7.93;5.00;;;18.30;55.50;;;;;;5081839;28;20437;-83
2023/03/26 02:02:12;;;;;;;6.47;5.27;;;18.30;55.40;;;;;;5074892;28;20469;-81
2023/03/26 02:04:43;;;;;;;9.20;5.47;;;18.30;55.60;;;;;;5079987;28;20481;-83
2023/03/26 02:07:13;;;;;;;7.73;5.30;;;18.30;55.60;;;;;;5079834;28;20480;-83
2023/03/26 02:09:44;;;;;;;8.50;5.40;;;18.20;55.50;;;;;;5073987;28;21041;-82
2023/03/26 02:12:14;;;;;;;5.13;4.53;;;18.30;55.60;;;;;;5079407;28;20482;-81
2023/03/26 02:14:43;;;;;;;9.03;5.10;;;18.20;55.50;;;;;;5081157;28;20529;-82
2023/03/26 02:17:10;;;;;;;8.20;5.10;;;18.20;55.50;;;;;;5076085;28;20480;-81
2023/03/26 02:19:40;;;;;;;8.17;5.00;;;18.20;55.60;;;;;;5075126;28;20440;-81
2023/03/26 02:22:09;;;;;;;7.37;4.87;;;18.20;55.60;;;;;;5078668;28;20524;-82
2023/03/26 02:24:38;;;;;;;8.80;5.10;;;18.20;55.60;;;;;;5068354;28;20910;-81
2023/03/26 02:27:06;;;;;;;7.63;5.10;;;18.20;55.80;;;;;;5080723;28;20473;-82
2023/03/26 02:29:37;;;;;;;9.90;4.70;;;18.20;55.70;;;;;;5080560;28;20476;-82
2023/03/26 02:32:04;;;;;;;6.10;4.50;;;18.20;55.60;;;;;;5079010;28;20538;-82
2023/03/26 02:34:32;;;;;;;7.90;4.40;;;18.20;55.70;;;;;;5080090;28;20481;-83
2023/03/26 02:37:00;;;;;;;6.67;4.80;;;18.20;55.80;;;;;;5078479;28;20483;-82
2023/03/26 02:39:28;;;;;;;6.33;4.50;;;18.30;55.90;;;;;;5077330;28;20453;-82
2023/03/26 02:41:56;;;;;;;6.13;4.20;;;18.20;55.90;;;;;;5075250;28;20450;-81
2023/03/26 02:44:24;;;;;;;6.30;4.20;;;18.20;55.70;;;;;;5076015;28;20452;-82
2023/03/26 02:46:54;;;;;;;4.60;4.10;;;18.20;55.80;;;;;;5078291;28;20473;-82
2023/03/26 02:49:22;;;;;;;8.60;4.87;;;18.20;56.50;;;;;;5076118;28;20482;-82
2023/03/26 02:51:55;;;;;;;5.70;4.37;;;18.20;55.90;;;;;;5076499;28;20456;-82
2023/03/26 02:54:23;;;;;;;4.87;3.83;;;18.20;56.00;;;;;;5077529;28;20480;-82
2023/03/26 02:56:51;;;;;;;7.03;4.43;;;18.20;55.90;;;;;;5074588;28;20481;-83
2023/03/26 02:59:18;;;;;;;5.53;4.00;;;18.20;56.00;;;;;;5076861;28;20441;-82
2023/03/26 03:01:46;;;;;;;4.60;3.83;;;18.20;56.10;;;;;;5080905;28;20444;-80
2023/03/26 03:04:16;;;;;;;5.27;4.10;;;18.10;56.00;;;;;;5084593;28;20489;-82
2023/03/26 03:06:44;;;;;;;6.77;4.17;;;18.10;56.00;;;;;;5073425;28;20553;-82
2023/03/26 03:09:12;;;;;;;6.50;4.03;;;18.10;56.10;;;;;;5074126;28;20449;-82
2023/03/26 03:11:40;;;;;;;4.97;4.03;;;18.10;56.20;;;;;;5069162;28;20457;-81
2023/03/26 03:14:08;;;;;;;5.27;4.37;;;18.10;56.10;;;;;;5075221;28;20446;-82
2023/03/26 03:16:36;;;;;;;7.00;3.70;;;18.10;56.20;;;;;;5074605;28;20450;-82
2023/03/26 03:19:05;;;;;;;10.43;4.40;;;18.10;56.20;;;;;;5068768;28;20545;-82
2023/03/26 03:21:34;;;;;;;5.83;3.53;;;18.10;56.20;;;;;;5075441;28;20460;-81
2023/03/26 03:24:03;;;;;;;6.03;4.03;;;18.10;56.30;;;;;;5076529;28;20460;-82
2023/03/26 03:26:30;;;;;;;3.83;3.33;;;18.00;56.20;;;;;;5075594;28;20457;-82
2023/03/26 03:28:59;;;;;;;5.10;3.70;;;18.00;56.10;;;;;;5075342;28;20460;-81
2023/03/26 03:31:27;;;;;;;4.63;3.43;;;18.00;56.20;;;;;;5075699;28;20461;-82
2023/03/26 03:33:55;;;;;;;5.87;3.90;;;18.00;56.30;;;;;;5069821;28;20455;-81
2023/03/26 03:36:26;;;;;;;4.40;3.57;;;18.00;56.30;;;;;;5072153;28;20490;-82
2023/03/26 03:39:01;;;;;;;6.57;3.80;;;18.00;56.30;;;;;;5076513;28;20456;-82
2023/03/26 03:41:28;;;;;;;13.23;4.10;;;18.00;56.40;;;;;;5073186;28;20663;-82
2023/03/26 03:43:58;;;;;;;5.03;3.73;;;18.00;56.40;;;;;;5068543;28;20523;-82
2023/03/26 03:46:26;;;;;;;5.50;3.60;;;18.00;56.50;;;;;;5076315;28;20461;-80
2023/03/26 03:48:54;;;;;;;5.47;3.63;;;18.00;56.50;;;;;;5068767;28;20791;-81
2023/03/26 03:51:23;;;;;;;3.70;3.40;;;18.00;56.50;;;;;;5073288;28;20449;-82
2023/03/26 03:53:51;;;;;;;4.17;3.20;;;18.00;56.50;;;;;;5074525;28;20454;-82
2023/03/26 03:56:22;;;;;;;4.27;3.00;;;18.00;56.70;;;;;;5074430;28;20491;-82
2023/03/26 03:58:51;;;;;;;4.87;3.20;;;18.00;56.50;;;;;;5077116;28;20835;-82
2023/03/26 04:01:21;;;;;;;4.47;3.10;;;18.00;56.60;;;;;;5073639;28;20469;-83
2023/03/26 04:03:49;;;;;;;5.60;3.30;;;17.90;56.70;;;;;;5074577;28;21022;-82
2023/03/26 04:06:18;;;;;;;5.70;2.87;;;17.90;56.60;;;;;;5073859;28;20453;-82
2023/03/26 04:08:46;;;;;;;3.43;2.90;;;17.90;56.70;;;;;;5072416;28;20445;-82
2023/03/26 04:11:14;;;;;;;3.77;2.90;;;18.00;56.80;;;;;;5073257;28;20449;-83
2023/03/26 04:13:44;;;;;;;4.33;3.20;;;17.90;56.70;;;;;;5077507;28;20528;-80
2023/03/26 04:16:12;;;;;;;3.80;3.40;;;17.90;56.70;;;;;;5074147;28;20556;-82
2023/03/26 04:18:40;;;;;;;3.00;2.70;;;17.90;56.80;;;;;;5077937;28;20470;-83
2023/03/26 04:21:11;;;;;;;4.70;3.13;;;17.90;56.80;;;;;;5074713;28;20460;-81
2023/03/26 04:23:41;;;;;;;4.13;3.20;;;17.90;56.80;;;;;;5073667;28;20540;-82
2023/03/26 04:26:12;;;;;;;3.57;3.13;;;17.90;56.70;;;;;;5073853;28;20443;-82
2023/03/26 04:28:45;;;;;;;4.20;3.23;;;17.90;56.80;;;;;;5074518;28;20936;-82
2023/03/26 04:31:14;;;;;;;4.10;3.20;;;17.80;56.70;;;;;;5073409;28;20480;-83
2023/03/26 04:33:49;;;;;;;4.73;3.03;;;17.90;56.80;;;;;;5072135;28;20453;-82
2023/03/26 04:36:17;;;;;;;4.37;2.77;;;17.90;56.80;;;;;;5074398;28;20469;-82
2023/03/26 04:38:47;;;;;;;3.33;2.90;;;17.80;56.80;;;;;;5070145;28;20477;-82
2023/03/26 04:41:16;;;;;;;4.33;3.07;;;17.80;56.80;;;;;;5073104;28;20457;-82
2023/03/26 04:43:49;;;;;;;4.07;3.20;;;17.80;56.80;;;;;;5069973;28;20460;-82
2023/03/26 04:46:20;;;;;;;5.77;3.00;;;17.80;56.90;;;;;;5073067;28;20488;-83
2023/03/26 04:48:48;;;;;;;3.83;2.60;;;17.70;56.80;;;;;;5068135;28;20544;-83
2023/03/26 04:51:17;;;;;;;5.90;3.33;;;17.80;57.00;;;;;;5072598;28;20492;-81
2023/03/26 04:53:46;;;;;;;5.33;2.97;;;17.70;56.90;;;;;;5068141;28;20449;-81
2023/03/26 04:56:18;;;;;;;2.87;2.57;;;17.70;56.90;;;;;;5072871;28;20469;-82
2023/03/26 04:58:49;;;;;;;3.90;2.80;;;17.70;56.80;;;;;;5067814;28;20453;-83
2023/03/26 05:01:17;;;;;;;8.30;3.17;;;17.70;56.90;;;;;;5071109;28;20461;-82
2023/03/26 05:03:45;;;;;;;4.10;2.70;;;17.70;57.00;;;;;;5074832;28;20453;-83
2023/03/26 05:06:13;;;;;;;3.17;2.50;;;17.70;57.00;;;;;;5072093;28;20559;-82
2023/03/26 05:08:41;;;;;;;3.30;2.67;;;17.70;57.10;;;;;;5074179;28;20466;-83
2023/03/26 05:11:10;;;;;;;3.13;2.83;;;17.70;57.00;;;;;;5074335;28;20453;-82
2023/03/26 05:13:41;;;;;;;5.47;2.70;;;17.70;57.00;;;;;;5076910;28;20450;-83
2023/03/26 05:16:11;;;;;;;4.10;2.77;;;17.70;57.00;;;;;;5073394;28;20497;-83
2023/03/26 05:18:39;;;;;;;3.47;2.57;;;17.70;57.00;;;;;;5074203;28;20536;-83
2023/03/26 05:21:07;;;;;;;5.83;2.60;;;17.70;57.00;;;;;;5073988;28;20950;-81
2023/03/26 05:23:35;;;;;;;4.10;3.00;;;17.70;57.00;;;;;;5073616;28;20454;-83
2023/03/26 05:26:02;;;;;;;3.10;2.20;;;17.70;57.00;;;;;;5072981;28;20450;-83
2023/03/26 05:28:31;;;;;;;2.43;2.23;;;17.70;57.10;;;;;;5071162;28;20483;-82
2023/03/26 05:31:00;;;;;;;3.43;2.20;;;17.70;57.10;;;;;;5073643;28;20445;-82
2023/03/26 05:33:29;;;;;;;2.40;2.13;;;17.70;57.20;;;;;;5071498;28;20983;-83
2023/03/26 05:36:01;;;;;;;4.13;3.03;;;17.70;57.00;;;;;;5075162;28;20489;-82
2023/03/26 05:38:30;;;;;;;4.60;3.00;;;17.70;57.00;;;;;;5075633;28;20507;-82
2023/03/26 05:40:59;;;;;;;4.27;2.50;;;17.70;57.10;;;;;;5076158;28;20455;-82
2023/03/26 05:43:27;;;;;;;3.03;2.63;;;17.70;57.00;;;;;;5074138;28;20449;-83
2023/03/26 05:45:55;;;;;;;4.57;2.47;;;17.70;57.00;;;;;;5075563;28;20484;-82
2023/03/26 05:48:24;;;;;;;3.83;1.90;;;17.70;57.10;;;;;;5074057;28;20496;-82
2023/03/26 05:50:54;;;;;;;3.97;2.30;;;17.70;57.10;;;;;;5067969;28;20453;-83
2023/03/26 05:53:23;;;;;;;3.73;2.93;;;17.70;57.20;;;;;;5076832;28;20453;-83
2023/03/26 05:55:54;;;;;;;2.60;2.20;;;17.70;57.10;;;;;;5073837;28;20528;-83
2023/03/26 05:58:23;;;;;;;3.63;2.40;;;17.70;57.20;;;;;;5076029;28;20485;-83
2023/03/26 06:00:58;;;;;;;3.30;2.20;;;17.70;57.30;;;;;;5074114;28;20958;-83
2023/03/26 06:03:26;;;;;;;2.30;2.10;;;17.70;57.10;;;;;;5080420;28;20480;-82
2023/03/26 06:05:56;;;;;;;3.80;2.40;;;17.70;57.10;;;;;;5081887;28;20449;-83
2023/03/26 06:08:24;;;;;;;3.40;2.27;;;17.70;57.20;;;;;;5076892;28;20476;-82
2023/03/26 06:10:58;;;;;;;3.67;2.40;;;17.70;57.10;;;;;;5075728;28;20442;-82
2023/03/26 06:13:26;;;;;;;3.10;1.90;;;17.70;57.30;;;;;;5092467;28;20523;-82
2023/03/26 06:15:54;;;;;;;2.77;2.17;;;17.70;57.30;;;;;;5074350;28;20445;-81
2023/03/26 06:18:22;;;;;;;2.27;2.07;;;17.70;57.20;;;;;;5074055;28;20500;-82
2023/03/26 06:20:51;;;;;;;2.13;1.93;;;17.70;57.20;;;;;;5070241;28;20536;-83
2023/03/26 06:23:21;;;;;;;2.23;2.03;;;17.70;57.30;;;;;;5078184;28;20468;-82
2023/03/26 06:25:49;;;;;;;2.70;1.97;;;17.70;57.30;;;;;;5079078;28;20521;-82
2023/03/26 06:28:18;;;;;;;2.40;2.20;;;17.80;57.20;;;;;;5077795;28;20496;-83
2023/03/26 06:30:46;;;;;;;2.50;2.23;;;17.80;57.30;;;;;;5076166;28;20454;-83
2023/03/26 06:33:15;;;;;;;5.73;2.20;;;17.80;57.30;;;;;;5076658;28;20457;-82
2023/03/26 06:35:44;;;;;;;5.03;2.27;;;17.80;57.30;;;;;;5075970;28;20537;-82
2023/03/26 06:38:12;;;;;;;4.43;2.57;;;17.80;57.40;;;;;;5075824;28;20481;-81
2023/03/26 06:40:42;;;;;;;2.63;2.20;;;17.80;57.30;;;;;;5076640;28;20522;-82
2023/03/26 06:43:10;;;;;;;2.50;2.20;;;17.80;57.40;;;;;;5079697;28;20457;-84
2023/03/26 06:45:38;;;;;;;3.40;2.23;;;17.80;57.40;;;;;;5080888;28;20480;-83
2023/03/26 06:48:07;;;;;;;3.33;2.07;;;17.80;57.40;;;;;;5079799;28;20473;-83
2023/03/26 06:50:34;;;;;;;3.90;1.80;;;17.80;57.30;;;;;;5076344;28;20472;-83
2023/03/26 06:53:02;;;;;;;1.97;1.87;;;17.80;57.40;;;;;;5077818;28;20521;-82
2023/03/26 06:55:31;;;;;;;2.90;1.90;;;17.80;57.30;;;;;;5076320;28;20461;-82
2023/03/26 06:58:00;;;;;;;2.20;2.00;;;17.80;57.50;;;;;;5071562;28;20474;-82
2023/03/26 07:00:28;;;;;;;2.40;2.20;;;17.90;57.50;;;;;;5076547;28;20450;-83
2023/03/26 07:02:56;;;;;;;3.93;2.30;;;17.90;57.40;;;;;;5073497;28;20452;-82
2023/03/26 07:05:25;;;;;;;4.30;2.13;;;17.90;57.60;;;;;;5077509;28;20460;-82
2023/03/26 07:07:53;;;;;;;5.00;2.17;;;17.90;57.50;;;;;;5079793;28;20556;-82
2023/03/26 07:10:21;;;;;;;2.23;2.00;;;17.90;57.40;;;;;;5078892;28;20460;-83
2023/03/26 07:12:49;;;;;;;3.60;2.10;;;18.00;57.50;;;;;;5076243;28;20556;-82
2023/03/26 07:15:19;;;;;;;3.40;1.80;;;17.90;58.00;;;;;;5074294;28;20442;-82
2023/03/26 07:17:46;;;;;;;2.73;2.17;;;18.00;57.60;;;;;;5074406;28;20477;-82
2023/03/26 07:20:14;;;;;;;4.20;1.97;;;18.00;57.40;;;;;;5074043;28;20450;-83
2023/03/26 07:22:42;;;;;;;3.70;1.87;;;18.00;57.50;;;;;;5076314;28;20457;-83
2023/03/26 07:25:12;;;;;;;3.40;2.37;;;18.00;57.40;;;;;;5076986;28;20524;-83
2023/03/26 07:27:46;;;;;;;2.23;2.13;;;18.00;57.50;;;;;;5080967;28;20500;-83
2023/03/26 07:30:15;;;;;;;2.40;2.20;;;18.10;57.60;;;;;;5076326;28;20532;-81
2023/03/26 07:32:50;;;;;;;2.30;2.00;;;18.10;57.50;;;;;;5076382;28;20472;-83
2023/03/26 07:35:20;;;;;;;4.50;2.23;;;18.10;57.50;;;;;;5076758;28;20503;-83
2023/03/26 07:37:53;;;;;;;4.17;1.97;;;18.10;57.40;;;;;;5069821;28;20477;-84
2023/03/26 07:40:35;;;;;;;2.30;1.57;;;18.10;57.50;;;;;;5076447;28;20446;-83
2023/03/26 07:43:06;;;;;;;3.47;1.93;;;18.10;57.50;;;;;;5075978;28;20457;-83
2023/03/26 07:45:36;;;;;;;2.23;1.70;;;18.10;57.50;;;;;;5071332;28;20468;-82
2023/03/26 07:48:09;;;;;;;2.60;1.90;;;18.10;57.50;;;;;;5078765;28;20470;-83
2023/03/26 07:50:38;;;;;;;3.20;1.80;;;18.20;57.50;;;;;;5077016;28;20451;-83
2023/03/26 07:53:06;;;;;;;2.80;1.97;;;18.20;57.50;;;;;;5078276;28;20459;-82
2023/03/26 07:55:34;;;;;;;6.73;2.07;;;18.20;57.50;;;;;;5080054;28;20473;-81
2023/03/26 07:58:08;;;;;;;2.60;1.77;;;18.20;57.40;;;;;;5069898;28;20473;-83
2023/03/26 08:00:38;;;;;;;3.13;1.63;;;18.20;57.40;;;;;;5078065;28;20462;-83
2023/03/26 08:03:27;;;;;;;2.10;1.73;;;18.30;57.60;;;;;;5071744;28;20456;-83
2023/03/26 08:06:01;;;;;;;2.33;2.00;;;18.30;57.50;;;;;;5077091;28;20480;-83
2023/03/26 08:08:32;;;;;;;2.23;2.13;;;18.40;57.50;;;;;;5071421;28;20465;-82
2023/03/26 08:11:08;;;;;;;2.20;1.70;;;18.40;57.40;;;;;;5065849;28;20453;-83
2023/03/26 08:13:39;;;;;;;1.73;1.60;;;18.40;57.50;;;;;;5076998;28;20461;-83
2023/03/26 08:16:09;;;;;;;1.73;1.63;;;18.40;57.50;;;;;;5080651;28;20456;-83
2023/03/26 08:18:44;;;;;;;3.70;1.90;;;18.40;57.40;;;;;;5073513;28;20477;-83
2023/03/26 08:21:15;;;;;;;3.20;2.07;;;18.50;57.40;;;;;;5076057;28;20458;-82
2023/03/26 08:23:51;;;;;;;4.60;1.90;;;18.50;57.50;;;;;;5082168;28;20746;-82
2023/03/26 08:26:23;;;;;;;1.90;1.70;;;18.50;57.30;;;;;;5073273;28;20449;-82
2023/03/26 08:28:57;;;;;;;2.40;1.50;;;18.50;57.40;;;;;;5081677;28;20461;-83
2023/03/26 08:31:32;;;;;;;3.07;1.63;;;18.60;57.40;;;;;;5073954;28;20455;-82
2023/03/26 08:34:02;;;;;;;3.77;2.10;;;18.60;57.30;;;;;;5070174;28;20452;-83
2023/03/26 08:36:30;;;;;;;2.30;1.60;;;18.70;57.40;;;;;;5073873;28;20452;-83
2023/03/26 08:38:58;;;;;;;3.20;1.53;;;18.70;57.40;;;;;;5079891;28;20460;-83
2023/03/26 08:41:59;;;;;;;4.10;2.20;;;18.70;57.20;;;;;;5073124;28;20449;-82
2023/03/26 08:44:54;;;;;;;4.17;2.17;;;18.70;57.20;;;;;;5067085;28;20454;-81
2023/03/26 08:47:54;;;;;;;2.07;1.70;;;18.70;57.20;;;;;;5074017;28;20489;-82
2023/03/26 08:50:44;;;;;;;3.23;2.17;;;18.80;57.20;;;;;;5073893;28;21017;-82
2023/03/26 08:53:39;;;;;;;3.30;1.77;;;18.80;57.20;;;;;;5078617;28;20449;-79
2023/03/26 08:56:13;;;;;;;2.90;1.57;;;18.90;57.20;;;;;;5068740;28;20445;-82
2023/03/26 08:58:53;;;;;;;3.67;1.77;;;18.90;57.00;;;;;;5079436;28;20473;-82
2023/03/26 09:01:50;;;;;;;3.53;2.10;;;19.00;57.10;;;;;;5080154;28;20450;-82
2023/03/26 09:04:47;;;;;;;2.13;1.60;;;19.00;57.10;;;;;;5077840;28;20484;-84
2023/03/26 09:07:34;;;;;;;3.87;1.73;;;19.00;57.60;;;;;;5073472;28;20465;-82
2023/03/26 09:10:22;;;;;;;1.50;1.40;;;19.10;57.10;;;;;;5071252;28;20453;-82
2023/03/26 09:13:27;;;;;;;5.00;2.10;;;19.20;56.90;;;;;;5071429;28;20483;-83
2023/03/26 09:16:28;;;;;;;1.97;1.63;;;19.20;56.80;;;;;;5069640;28;20458;-80
2023/03/26 09:19:22;;;;;;;1.80;1.70;;;19.20;56.80;;;;;;5073490;28;20482;-81
2023/03/26 09:22:23;;;;;;;3.03;1.90;;;19.30;56.70;;;;;;5080335;28;20441;-80
2023/03/26 09:25:15;;;;;;;4.30;2.27;;;19.40;56.60;;;;;;5072395;28;20432;-81
2023/03/26 09:27:54;;;;;;;2.57;1.90;;;19.50;56.60;;;;;;5075354;28;20492;-80
2023/03/26 09:30:52;;;;;;;5.23;2.20;;;19.60;56.60;;;;;;5071991;28;20453;-81
2023/03/26 09:33:54;;;;;;;3.67;2.20;;;19.60;56.50;;;;;;5043536;28;20472;-82
2023/03/26 09:36:37;;;;;;;2.77;2.23;;;19.70;56.40;;;;;;5072541;28;20531;-80
2023/03/26 09:39:12;;;;;;;3.30;2.30;;;19.90;56.60;;;;;;5073794;28;20480;-81
2023/03/26 09:41:42;;;;;;;2.93;2.57;;;20.00;56.30;;;;;;5080199;28;20579;-81
2023/03/26 09:44:40;;;;;;;3.03;2.73;;;20.40;56.80;;;;;;5080715;28;20452;-80
2023/03/26 09:47:45;;;;;;;4.63;3.10;;;20.70;56.80;;;;;;5077288;28;20489;-81
2023/03/26 09:50:23;;;;;;;3.87;3.10;;;21.00;56.50;;;;;;5073400;28;20449;-81
2023/03/26 09:53:17;;;;;;;3.93;2.53;;;21.20;56.40;;;;;;5077330;28;20450;-81
2023/03/26 09:56:00;;;;;;;3.23;2.93;;;21.20;56.00;;;;;;5073433;28;20461;-81
2023/03/26 09:58:48;;;;;;;6.10;2.50;;;21.20;56.00;;;;;;5076928;28;20477;-82
2023/03/26 10:01:19;;;;;;;6.50;3.03;;;21.20;55.70;;;;;;5075419;28;20541;-79
2023/03/26 10:03:56;;;;;;;5.90;2.97;;;21.20;55.70;;;;;;5077716;28;20517;-80
2023/03/26 10:06:36;;;;;;;2.73;2.53;;;21.10;55.70;;;;;;5075908;28;20452;-80
2023/03/26 10:09:20;;;;;;;4.70;3.07;;;21.10;55.70;;;;;;5078075;28;20515;-82
2023/03/26 10:12:06;;;;;;;4.43;2.50;;;21.00;55.70;;;;;;5076979;28;20446;-81
2023/03/26 10:14:36;;;;;;;3.00;2.50;;;21.00;55.70;;;;;;5076424;28;20479;-82
2023/03/26 10:17:10;;;;;;;2.63;2.40;;;21.00;55.70;;;;;;5072971;28;20451;-80
2023/03/26 10:19:45;;;;;;;3.33;2.67;;;21.00;55.80;;;;;;5076832;28;20499;-81
2023/03/26 10:22:23;;;;;;;4.93;2.50;;;21.00;55.70;;;;;;5078977;28;20445;-81
2023/03/26 10:25:15;;;;;;;3.33;2.20;;;21.00;55.80;;;;;;5077896;28;20463;-81
2023/03/26 10:27:49;;;;;;;3.90;2.80;;;21.00;55.70;;;;;;5070977;28;21080;-81
2023/03/26 10:30:38;;;;;;;4.83;2.80;;;21.00;55.70;;;;;;5077386;28;20525;-80
2023/03/26 10:33:13;;;;;;;3.83;2.60;;;21.00;55.70;;;;;;5071567;28;20450;-82
2023/03/26 10:35:47;;;;;;;5.90;2.90;;;21.10;55.70;;;;;;5071569;28;20540;-82
2023/03/26 10:38:18;;;;;;;2.73;2.40;;;21.20;55.80;;;;;;5075522;28;20547;-80
2023/03/26 10:41:03;;;;;;;4.47;2.67;;;21.20;55.80;;;;;;5077926;28;20457;-82
2023/03/26 10:43:48;;;;;;;2.77;2.20;;;21.30;55.70;;;;;;5069648;28;20457;-84
2023/03/26 10:46:50;;;;;;;4.33;3.03;;;21.50;55.50;;;;;;5075269;28;20471;-82
2023/03/26 10:49:49;;;;;;;4.27;2.60;;;21.60;55.40;;;;;;5078697;28;20437;-83
2023/03/26 10:52:19;;;;;;;3.47;2.40;;;21.70;55.20;;;;;;5078335;28;20491;-82
2023/03/26 10:54:53;;;;;;;5.73;2.53;;;21.70;55.00;;;;;;5081132;28;20461;-81
2023/03/26 10:57:29;;;;;;;2.53;2.33;;;21.80;55.00;;;;;;5081433;28;20469;-83
2023/03/26 11:00:00;;;;;;;4.20;2.30;;;21.70;54.90;;;;;;5078441;28;20469;-83
2023/03/26 11:02:29;;;;;;;4.10;2.67;;;21.80;55.10;;;;;;5078905;28;20458;-82
2023/03/26 11:05:14;;;;;;;4.70;2.90;;;21.90;55.70;;;;;;5081875;28;20442;-82
2023/03/26 11:07:44;;;;;;;4.90;2.43;;;22.00;54.90;;;;;;5081385;28;20981;-82
2023/03/26 11:10:14;;;;;;;5.90;3.40;;;22.10;55.00;;;;;;5080008;28;20532;-79
2023/03/26 11:12:45;;;;;;;13.67;4.37;;;22.10;54.40;;;;;;5077393;28;20450;-80
2023/03/26 11:15:21;;;;;;;12.77;3.90;;;20.40;42.90;;;;;;5076903;28;20433;-80
2023/03/26 11:17:56;;;;;;;14.73;3.70;;;19.40;42.00;;;;;;5077251;28;20481;-81
2023/03/26 11:20:32;;;;;;;11.70;3.50;;;18.70;39.40;;;;;;5080134;28;20469;-82
2023/03/26 11:23:08;;;;;;;8.90;2.73;;;19.10;41.90;;;;;;5082723;28;21085;-82
2023/03/26 11:25:56;;;;;;;8.43;2.50;;;20.20;43.00;;;;;;5084538;28;21025;-83
2023/03/26 11:28:45;;;;;;;16.53;3.77;;;20.80;39.00;;;;;;5074559;28;20556;-80
2023/03/26 11:31:45;;;;;;;11.43;4.43;;;20.90;36.80;;;;;;5081227;28;20456;-83
2023/03/26 11:34:15;;;;;;;9.67;2.87;;;20.80;37.80;;;;;;5079092;28;20449;-82
2023/03/26 11:36:45;;;;;;;13.00;3.57;;;20.80;35.90;;;;;;5083395;28;20472;-83
2023/03/26 11:39:15;;;;;;;13.07;3.47;;;20.50;35.80;;;;;;5086359;28;20473;-83
2023/03/26 11:41:43;;;;;;;13.33;2.83;;;20.40;36.50;;;;;;5085722;28;20474;-84
2023/03/26 11:44:20;;;;;;;13.30;4.50;;;20.40;35.30;;;;;;5083391;28;20454;-83
2023/03/26 11:46:52;;;;;;;13.70;4.23;;;20.20;34.80;;;;;;5080190;28;20491;-80
2023/03/26 11:49:20;;;;;;;22.90;8.53;;;19.50;32.30;;;;;;5083528;28;20445;-83
2023/03/26 11:51:49;;;;;;;20.47;10.23;;;18.60;35.60;;;;;;5080911;28;20458;-82
2023/03/26 11:54:19;;;;;;;16.47;6.90;;;18.70;36.20;;;;;;5075270;28;20454;-83
2023/03/26 11:56:49;;;;;;;19.60;10.53;;;19.00;36.00;;;;;;5078098;28;20477;-78
2023/03/26 11:59:37;;;;;;;26.10;6.93;;;18.60;36.40;;;;;;5076229;28;20507;-81
2023/03/26 12:02:31;;;;;;;21.67;6.10;;;19.70;39.80;;;;;;5074821;28;20449;-79
2023/03/26 12:05:14;;;;;;;16.83;5.37;;;21.40;40.10;;;;;;5073727;28;20525;-81
2023/03/26 12:07:45;;;;;;;13.93;5.60;;;22.40;38.80;;;;;;5074515;28;20473;-77
2023/03/26 12:10:25;;;;;;;12.30;5.10;;;22.80;39.00;;;;;;5078244;28;20454;-82
2023/03/26 12:12:54;;;;;;;13.30;4.53;;;23.10;39.30;;;;;;5075645;28;20454;-80
2023/03/26 12:15:22;;;;;;;20.97;4.60;;;23.20;39.30;;;;;;5078703;28;20461;-78
2023/03/26 12:17:57;;;;;;;14.77;5.40;;;23.50;39.90;;;;;;5076989;28;20469;-81
2023/03/26 12:20:37;;;;;;;13.17;5.17;;;23.80;40.30;;;;;;5077382;28;20465;-80
2023/03/26 12:23:07;;;;;;;13.17;4.57;;;24.40;40.70;;;;;;5076542;28;20457;-79
2023/03/26 12:25:35;;;;;;;11.80;4.60;;;25.30;40.10;;;;;;5077608;28;20473;-79
2023/03/26 12:28:04;;;;;;;15.07;5.33;;;26.10;40.50;;;;;;5076511;28;20824;-79
2023/03/26 12:30:33;;;;;;;13.67;4.60;;;28.40;40.40;;;;;;5078765;28;20449;-79
2023/03/26 12:33:04;;;;;;;41.47;4.77;;;30.90;38.70;;;;;;5079681;28;20450;-81
2023/03/26 12:35:33;;;;;;;16.50;5.03;;;32.00;33.50;;;;;;5085007;28;20521;-80
2023/03/26 12:38:15;;;;;;;15.73;4.90;;;30.90;33.40;;;;;;5073128;28;20462;-80
2023/03/26 12:40:43;;;;;;;12.83;4.53;;;29.70;34.60;;;;;;5077852;28;20481;-82
2023/03/26 12:43:21;;;;;;;11.37;5.17;;;28.90;36.00;;;;;;5080012;28;20423;-79
2023/03/26 12:46:23;;;;;;;12.07;4.20;;;28.40;37.50;;;;;;5078317;28;20428;-81
2023/03/26 12:49:12;;;;;;;12.67;4.70;;;28.10;38.90;;;;;;5073904;28;20494;-80
2023/03/26 12:51:44;;;;;;;14.03;4.90;;;27.90;39.90;;;;;;5078347;28;20450;-79
2023/03/26 12:54:27;;;;;;;11.43;4.77;;;27.70;40.60;;;;;;5076822;28;20504;-78
2023/03/26 12:57:04;;;;;;;11.63;4.53;;;27.40;40.90;;;;;;5076990;28;20443;-79
2023/03/26 12:59:46;;;;;;;17.53;5.20;;;27.20;41.60;;;;;;5072475;28;20480;-78
2023/03/26 13:02:31;;;;;;;10.23;4.37;;;27.10;41.70;;;;;;5074179;28;20457;-78
2023/03/26 13:05:07;;;;;;;11.10;5.13;;;27.00;41.50;;;;;;5073328;28;20424;-78
2023/03/26 13:07:51;;;;;;;22.57;6.17;;;26.80;41.30;;;;;;5069860;28;20473;-78
2023/03/26 13:10:36;;;;;;;17.00;7.10;;;26.60;41.30;;;;;;5070663;28;20442;-80
2023/03/26 13:13:11;;;;;;;21.73;11.70;;;26.60;42.50;;;;;;5074062;28;20428;-78
2023/03/26 13:15:39;;;;;;;28.07;15.67;;;26.60;43.10;;;;;;5069800;28;20449;-80
2023/03/26 13:18:15;;;;;;;31.50;15.87;;;26.50;43.30;;;;;;5076787;28;20469;-80